Time;durP1;ratioP1;P1;durP2;ratioP2;P2;SDS_P1;SDS_P2;PMS_P1;PMS_P2;Temp;Humidity;BMP_temperature;BMP_pressure;BME280_temperature;BME280_humidity;BME280_pressure;Samples;Min_cycle;Max_cycle;Signal;HPM_P1;HPM_P2
2024/01/27 00:02:01;;;;;;;7.63;2.27;;;2.10;99.90;;;;;;5092662;28;20261;-40
2024/01/27 00:04:26;;;;;;;9.20;2.60;;;2.10;99.90;;;;;;5092592;28;20198;-41
2024/01/27 00:06:52;;;;;;;15.77;3.50;;;2.10;99.90;;;;;;5093553;28;20693;-41
2024/01/27 00:09:19;;;;;;;9.03;3.23;;;2.00;99.90;;;;;;5092687;28;20171;-41
2024/01/27 00:11:48;;;;;;;13.23;3.80;;;2.00;99.90;;;;;;5093752;28;20202;-40
2024/01/27 00:14:17;;;;;;;13.77;3.23;;;2.00;99.90;;;;;;5093891;28;20642;-40
2024/01/27 00:16:46;;;;;;;15.87;2.97;;;1.90;99.90;;;;;;5093403;28;20199;-41
2024/01/27 00:19:12;;;;;;;8.77;2.67;;;1.90;99.90;;;;;;5093167;28;20606;-43
2024/01/27 00:21:37;;;;;;;8.13;2.73;;;2.00;99.90;;;;;;5092375;28;20188;-42
2024/01/27 00:24:05;;;;;;;13.77;6.03;;;2.00;99.90;;;;;;5093428;28;20231;-39
2024/01/27 00:26:33;;;;;;;10.57;3.07;;;2.00;99.90;;;;;;5093273;28;20194;-43
2024/01/27 00:28:59;;;;;;;16.43;3.07;;;1.90;99.90;;;;;;5093330;28;20254;-42
2024/01/27 00:31:24;;;;;;;10.67;2.77;;;1.90;99.90;;;;;;5093394;28;20333;-41
2024/01/27 00:33:50;;;;;;;12.20;3.27;;;1.90;99.90;;;;;;5093384;28;20635;-44
2024/01/27 00:36:15;;;;;;;6.17;2.53;;;1.90;99.90;;;;;;5091993;28;20686;-40
2024/01/27 00:38:41;;;;;;;9.33;2.60;;;1.90;99.90;;;;;;5093328;28;20179;-44
2024/01/27 00:41:19;;;;;;;10.10;3.40;;;1.90;99.90;;;;;;5093706;28;20179;-41
2024/01/27 00:43:46;;;;;;;6.00;2.30;;;1.90;99.90;;;;;;5093373;28;20689;-41
2024/01/27 00:46:11;;;;;;;15.93;3.83;;;1.90;99.90;;;;;;5092271;28;20746;-42
2024/01/27 00:48:37;;;;;;;12.07;3.23;;;1.80;99.90;;;;;;5093449;28;20248;-43
2024/01/27 00:51:03;;;;;;;10.70;3.43;;;1.70;99.90;;;;;;5093230;28;20275;-47
2024/01/27 00:53:32;;;;;;;8.87;3.00;;;1.70;99.90;;;;;;5093666;28;20183;-47
2024/01/27 00:55:59;;;;;;;11.97;3.47;;;1.60;99.90;;;;;;5092942;28;20254;-47
2024/01/27 00:58:24;;;;;;;7.60;3.17;;;1.60;99.90;;;;;;5092043;28;20664;-46
2024/01/27 01:00:50;;;;;;;9.73;3.50;;;1.70;99.90;;;;;;5093208;28;20171;-47
2024/01/27 01:03:16;;;;;;;15.43;3.70;;;1.70;99.90;;;;;;5093000;28;20186;-46
2024/01/27 01:05:41;;;;;;;8.53;2.83;;;1.70;99.90;;;;;;5093185;28;20205;-48
2024/01/27 01:08:07;;;;;;;17.40;3.37;;;1.60;99.90;;;;;;5092928;28;20179;-47
2024/01/27 01:10:33;;;;;;;13.77;3.80;;;1.60;99.90;;;;;;5093233;28;20187;-46
2024/01/27 01:12:59;;;;;;;7.23;2.67;;;1.60;99.90;;;;;;5093011;28;20160;-48
2024/01/27 01:15:24;;;;;;;12.77;3.53;;;1.60;99.90;;;;;;5092975;28;20195;-48
2024/01/27 01:17:50;;;;;;;10.97;3.17;;;1.70;99.90;;;;;;5093268;28;20676;-48
2024/01/27 01:20:16;;;;;;;13.53;4.07;;;1.60;99.90;;;;;;5095062;28;20639;-47
2024/01/27 01:22:42;;;;;;;10.43;3.20;;;1.70;99.90;;;;;;5096545;28;20194;-47
2024/01/27 01:25:08;;;;;;;11.10;3.63;;;1.60;99.90;;;;;;5096771;28;20183;-46
2024/01/27 01:27:34;;;;;;;9.57;2.93;;;1.70;99.90;;;;;;5096281;28;20214;-47
2024/01/27 01:30:02;;;;;;;16.27;3.43;;;1.60;99.90;;;;;;5096375;28;20171;-47
2024/01/27 01:32:28;;;;;;;13.57;3.17;;;1.60;99.90;;;;;;5094942;28;20232;-47
2024/01/27 01:34:54;;;;;;;11.70;3.67;;;1.60;99.90;;;;;;5095004;28;20206;-48
2024/01/27 01:37:22;;;;;;;12.40;3.50;;;1.60;99.90;;;;;;5096256;28;20190;-46
2024/01/27 01:39:48;;;;;;;10.17;3.27;;;1.60;99.90;;;;;;5096192;28;20171;-47
2024/01/27 01:42:13;;;;;;;11.07;3.27;;;1.60;99.90;;;;;;5096163;28;20720;-49
2024/01/27 01:44:39;;;;;;;16.70;3.20;;;1.70;99.90;;;;;;5096142;28;20179;-46
2024/01/27 01:47:04;;;;;;;14.03;3.57;;;1.70;99.90;;;;;;5096018;28;20202;-47
2024/01/27 01:49:30;;;;;;;12.20;3.40;;;1.70;99.90;;;;;;5096357;28;20171;-47
2024/01/27 01:51:59;;;;;;;13.80;3.30;;;1.70;99.90;;;;;;5095886;28;20187;-47
2024/01/27 01:54:27;;;;;;;10.20;3.20;;;1.70;99.90;;;;;;5096306;28;20213;-47
2024/01/27 01:56:55;;;;;;;14.00;3.77;;;1.70;99.90;;;;;;5094996;28;20609;-47
2024/01/27 01:59:21;;;;;;;14.13;3.07;;;1.70;99.90;;;;;;5094849;28;20179;-48
2024/01/27 02:01:46;;;;;;;14.67;3.10;;;1.70;99.90;;;;;;5096681;28;20182;-46
2024/01/27 02:04:12;;;;;;;10.70;3.30;;;1.70;99.90;;;;;;5096128;28;20174;-47
2024/01/27 02:06:40;;;;;;;10.50;3.53;;;1.70;99.90;;;;;;5095810;28;20199;-46
2024/01/27 02:09:07;;;;;;;11.37;3.23;;;1.70;99.90;;;;;;5094523;28;20227;-47
2024/01/27 02:11:33;;;;;;;12.93;2.97;;;1.70;99.90;;;;;;5095482;28;20182;-47
2024/01/27 02:13:59;;;;;;;11.57;3.33;;;1.70;99.90;;;;;;5095534;28;20328;-48
2024/01/27 02:16:25;;;;;;;9.43;3.07;;;1.60;99.90;;;;;;5095311;28;20214;-49
2024/01/27 02:18:52;;;;;;;20.37;3.33;;;1.60;99.90;;;;;;5094193;28;20193;-48
2024/01/27 02:21:17;;;;;;;10.60;3.50;;;1.70;99.90;;;;;;5094139;28;20530;-47
2024/01/27 02:23:43;;;;;;;10.03;3.40;;;1.60;99.90;;;;;;5095349;28;20173;-49
2024/01/27 02:26:09;;;;;;;13.40;3.57;;;1.60;99.90;;;;;;5095238;28;20198;-48
2024/01/27 02:28:35;;;;;;;15.40;3.20;;;1.60;99.90;;;;;;5095496;28;20183;-49
2024/01/27 02:31:01;;;;;;;14.50;3.30;;;1.60;99.90;;;;;;5094408;28;20206;-47
2024/01/27 02:33:29;;;;;;;15.87;3.63;;;1.50;99.90;;;;;;5095078;28;20179;-49
2024/01/27 02:35:55;;;;;;;10.40;3.50;;;1.50;99.90;;;;;;5094741;28;20264;-48
2024/01/27 02:38:20;;;;;;;17.43;3.43;;;1.60;99.90;;;;;;5095498;28;20179;-48
2024/01/27 02:40:46;;;;;;;15.20;3.70;;;1.50;99.90;;;;;;5094883;28;20205;-48
2024/01/27 02:43:12;;;;;;;12.00;3.30;;;1.50;99.90;;;;;;5094867;28;20696;-49
2024/01/27 02:45:38;;;;;;;13.77;3.30;;;1.50;99.90;;;;;;5095010;28;20206;-47
2024/01/27 02:48:05;;;;;;;18.37;3.43;;;1.50;99.90;;;;;;5095094;28;20241;-49
2024/01/27 02:50:30;;;;;;;11.77;3.30;;;1.50;99.90;;;;;;5092150;28;20226;-49
2024/01/27 02:52:56;;;;;;;11.60;2.93;;;1.50;99.90;;;;;;5094749;28;20201;-47
2024/01/27 02:55:21;;;;;;;15.00;3.27;;;1.50;99.90;;;;;;5094438;28;20679;-47
2024/01/27 02:57:47;;;;;;;11.53;3.20;;;1.50;99.90;;;;;;5093544;28;20187;-47
2024/01/27 03:00:13;;;;;;;16.50;3.47;;;1.50;99.90;;;;;;5094753;28;20210;-46
2024/01/27 03:02:41;;;;;;;16.27;3.40;;;1.50;99.90;;;;;;5093320;28;20195;-46
2024/01/27 03:05:14;;;;;;;12.47;3.30;;;1.50;99.90;;;;;;5094458;28;20186;-48
2024/01/27 03:07:40;;;;;;;13.37;3.77;;;1.60;99.90;;;;;;5094424;28;20211;-47
2024/01/27 03:10:06;;;;;;;10.20;2.97;;;1.60;99.90;;;;;;5094659;28;20606;-47
2024/01/27 03:12:32;;;;;;;14.13;3.20;;;1.60;99.90;;;;;;5094369;28;20655;-47
2024/01/27 03:14:58;;;;;;;20.60;3.17;;;1.60;99.90;;;;;;5094494;28;20222;-47
2024/01/27 03:17:24;;;;;;;10.77;2.73;;;1.50;99.90;;;;;;5092767;28;20213;-47
2024/01/27 03:19:49;;;;;;;10.37;3.30;;;1.60;99.90;;;;;;5094471;28;20185;-48
2024/01/27 03:22:15;;;;;;;10.73;3.10;;;1.60;99.90;;;;;;5094163;28;20266;-48
2024/01/27 03:24:41;;;;;;;12.17;3.37;;;1.60;99.90;;;;;;5092929;28;20191;-47
2024/01/27 03:27:07;;;;;;;16.17;2.93;;;1.60;99.90;;;;;;5094335;28;20542;-47
2024/01/27 03:29:32;;;;;;;10.67;3.10;;;1.60;99.90;;;;;;5094313;28;20189;-47
2024/01/27 03:32:01;;;;;;;12.63;2.87;;;1.60;99.90;;;;;;5093821;28;20216;-46
2024/01/27 03:34:28;;;;;;;19.73;3.40;;;1.60;99.90;;;;;;5094149;28;20664;-46
2024/01/27 03:36:53;;;;;;;11.73;3.20;;;1.60;99.90;;;;;;5092993;28;20221;-47
2024/01/27 03:39:19;;;;;;;14.77;3.30;;;1.60;99.90;;;;;;5093932;28;20170;-47
2024/01/27 03:41:45;;;;;;;14.07;3.00;;;1.60;99.90;;;;;;5094164;28;20167;-47
2024/01/27 03:44:10;;;;;;;17.63;3.70;;;1.60;99.90;;;;;;5093716;28;20582;-49
2024/01/27 03:46:38;;;;;;;9.17;2.93;;;1.60;99.90;;;;;;5093723;28;20194;-47
2024/01/27 03:49:10;;;;;;;15.90;3.50;;;1.50;99.90;;;;;;5093697;28;20254;-48
2024/01/27 03:51:37;;;;;;;12.63;3.53;;;1.50;99.90;;;;;;5093763;28;20646;-48
2024/01/27 03:54:04;;;;;;;16.93;4.77;;;1.50;99.90;;;;;;5094043;28;20532;-46
2024/01/27 03:56:30;;;;;;;15.53;3.27;;;1.50;99.90;;;;;;5093719;28;20218;-48
2024/01/27 03:59:03;;;;;;;12.30;3.23;;;1.40;99.90;;;;;;5093611;28;20540;-48
2024/01/27 04:01:32;;;;;;;13.03;3.30;;;1.40;99.90;;;;;;5089794;28;20610;-49
2024/01/27 04:03:58;;;;;;;16.37;3.60;;;1.30;99.90;;;;;;5093476;28;20175;-48
2024/01/27 04:06:23;;;;;;;18.47;3.80;;;1.30;99.90;;;;;;5093396;28;20296;-48
2024/01/27 04:08:49;;;;;;;14.80;3.50;;;1.20;99.90;;;;;;5093481;28;20220;-46
2024/01/27 04:11:25;;;;;;;16.10;4.30;;;1.30;99.90;;;;;;5093361;28;20179;-48
2024/01/27 04:13:52;;;;;;;8.67;3.43;;;1.20;99.90;;;;;;5093749;28;20632;-47
2024/01/27 04:16:18;;;;;;;9.93;2.83;;;1.20;99.90;;;;;;5093229;28;20217;-48
2024/01/27 04:18:43;;;;;;;13.00;3.87;;;1.20;99.90;;;;;;5093371;28;20649;-48
2024/01/27 04:21:09;;;;;;;8.27;3.70;;;1.20;99.90;;;;;;5093306;28;20539;-49
2024/01/27 04:23:37;;;;;;;9.47;2.93;;;1.10;99.90;;;;;;5093579;28;20185;-46
2024/01/27 04:26:03;;;;;;;12.97;3.37;;;1.10;99.90;;;;;;5093232;28;20199;-49
2024/01/27 04:28:31;;;;;;;7.67;2.83;;;1.10;99.90;;;;;;5093201;28;20312;-49
2024/01/27 04:30:57;;;;;;;14.70;3.33;;;1.10;99.90;;;;;;5093081;28;20674;-48
2024/01/27 04:33:23;;;;;;;6.33;3.40;;;1.10;99.90;;;;;;5093190;28;20193;-48
2024/01/27 04:35:51;;;;;;;12.83;3.47;;;1.10;99.90;;;;;;5092999;28;20210;-46
2024/01/27 04:38:17;;;;;;;11.57;2.60;;;1.00;99.90;;;;;;5093126;28;20206;-48
2024/01/27 04:40:46;;;;;;;13.93;3.63;;;1.00;99.90;;;;;;5093148;28;20211;-48
2024/01/27 04:43:17;;;;;;;12.07;3.33;;;0.90;99.90;;;;;;5093162;28;20254;-48
2024/01/27 04:45:43;;;;;;;9.83;3.17;;;0.90;99.90;;;;;;5093520;28;20209;-47
2024/01/27 04:48:08;;;;;;;13.77;3.77;;;0.90;99.90;;;;;;5093342;28;20176;-48
2024/01/27 04:50:34;;;;;;;11.70;3.20;;;0.80;99.90;;;;;;5093278;28;20548;-47
2024/01/27 04:53:00;;;;;;;8.33;3.20;;;0.80;99.90;;;;;;5093039;28;20182;-47
2024/01/27 04:55:26;;;;;;;13.80;3.77;;;0.70;99.90;;;;;;5095496;28;20289;-46
2024/01/27 04:57:53;;;;;;;15.50;3.50;;;0.70;99.90;;;;;;5095535;28;20265;-47
2024/01/27 05:00:18;;;;;;;12.57;2.97;;;0.70;99.90;;;;;;5097153;28;20623;-46
2024/01/27 05:02:45;;;;;;;10.70;3.13;;;0.60;99.90;;;;;;5097193;28;20197;-47
2024/01/27 05:05:12;;;;;;;12.10;3.27;;;0.60;99.90;;;;;;5096998;28;20184;-47
2024/01/27 05:07:38;;;;;;;12.07;3.00;;;0.50;99.90;;;;;;5097282;28;20556;-47
2024/01/27 05:10:11;;;;;;;12.00;2.90;;;0.50;99.90;;;;;;5095940;28;20189;-47
2024/01/27 05:12:40;;;;;;;8.30;2.83;;;0.40;99.90;;;;;;5097061;28;20257;-47
2024/01/27 05:15:06;;;;;;;11.37;3.47;;;0.40;99.90;;;;;;5096925;28;20230;-47
2024/01/27 05:17:32;;;;;;;13.20;3.10;;;0.30;99.90;;;;;;5096697;28;20241;-48
2024/01/27 05:19:58;;;;;;;8.53;2.63;;;0.30;99.90;;;;;;5096667;28;20190;-48
2024/01/27 05:22:28;;;;;;;7.30;2.63;;;0.20;99.90;;;;;;5096730;28;20700;-46
2024/01/27 05:24:55;;;;;;;10.43;2.93;;;0.20;99.90;;;;;;5096693;28;20224;-47
2024/01/27 05:27:21;;;;;;;12.93;3.77;;;0.10;99.90;;;;;;5097230;28;20587;-47
2024/01/27 05:29:49;;;;;;;11.40;3.23;;;0.10;99.90;;;;;;5096683;28;20190;-47
2024/01/27 05:32:19;;;;;;;10.10;3.13;;;0.10;99.90;;;;;;5096284;28;20273;-47
2024/01/27 05:34:45;;;;;;;8.73;3.13;;;0.10;99.90;;;;;;5096240;28;20610;-49
2024/01/27 05:37:14;;;;;;;7.57;3.07;;;0.00;99.90;;;;;;5096438;28;20210;-48
2024/01/27 05:39:39;;;;;;;9.57;3.23;;;0.00;99.90;;;;;;5096515;28;20178;-49
2024/01/27 05:42:08;;;;;;;12.87;3.60;;;0.00;99.90;;;;;;5097137;28;20178;-47
2024/01/27 05:44:33;;;;;;;12.50;3.43;;;0.00;99.90;;;;;;5096247;28;20175;-47
2024/01/27 05:46:59;;;;;;;12.67;3.33;;;-0.10;99.90;;;;;;5096274;28;20198;-49
2024/01/27 05:49:27;;;;;;;10.47;3.33;;;-0.10;99.90;;;;;;5095987;28;20247;-48
2024/01/27 05:51:53;;;;;;;12.33;3.97;;;-0.10;99.90;;;;;;5095979;28;20181;-47
2024/01/27 05:54:18;;;;;;;8.40;3.00;;;-0.10;99.90;;;;;;5095992;28;20269;-49
2024/01/27 05:56:47;;;;;;;10.03;3.07;;;-0.10;99.90;;;;;;5095741;28;20225;-46
2024/01/27 05:59:14;;;;;;;11.17;3.30;;;-0.20;99.90;;;;;;5096166;28;20180;-47
2024/01/27 06:01:40;;;;;;;10.97;3.20;;;-0.20;99.90;;;;;;5096116;28;20176;-48
2024/01/27 06:04:09;;;;;;;9.40;2.77;;;-0.20;99.90;;;;;;5095759;28;20170;-48
2024/01/27 06:06:39;;;;;;;11.93;2.93;;;-0.20;99.90;;;;;;5094579;28;20203;-47
2024/01/27 06:09:10;;;;;;;14.57;3.50;;;-0.20;99.90;;;;;;5095975;28;20193;-48
2024/01/27 06:11:37;;;;;;;11.97;3.83;;;-0.20;99.90;;;;;;5095945;28;20167;-49
2024/01/27 06:14:02;;;;;;;9.03;2.93;;;-0.20;99.90;;;;;;5095833;28;20235;-49
2024/01/27 06:16:31;;;;;;;11.80;3.00;;;-0.20;99.90;;;;;;5095344;28;20222;-48
2024/01/27 06:19:00;;;;;;;11.90;3.23;;;-0.30;99.90;;;;;;5095540;28;20198;-48
2024/01/27 06:21:26;;;;;;;9.70;2.90;;;-0.30;99.90;;;;;;5095450;28;20383;-48
2024/01/27 06:23:53;;;;;;;11.07;2.87;;;-0.30;99.90;;;;;;5095345;28;20661;-47
2024/01/27 06:26:21;;;;;;;12.80;3.00;;;-0.40;99.90;;;;;;5095576;28;20630;-48
2024/01/27 06:28:46;;;;;;;11.07;3.03;;;-0.40;99.90;;;;;;5095300;28;20413;-47
2024/01/27 06:31:16;;;;;;;9.33;3.27;;;-0.40;99.90;;;;;;5095122;28;20206;-49
2024/01/27 06:33:41;;;;;;;6.87;2.53;;;-0.40;99.90;;;;;;5095112;28;20183;-49
2024/01/27 06:36:09;;;;;;;5.53;2.30;;;-0.50;99.90;;;;;;5095017;28;20210;-49
2024/01/27 06:38:37;;;;;;;9.23;3.17;;;-0.50;99.90;;;;;;5095496;28;20212;-48
2024/01/27 06:41:03;;;;;;;7.97;2.50;;;-0.50;99.90;;;;;;5094097;28;20230;-49
2024/01/27 06:43:29;;;;;;;11.53;3.00;;;-0.50;99.90;;;;;;5095247;28;20207;-47
2024/01/27 06:45:58;;;;;;;12.37;3.10;;;-0.50;99.90;;;;;;5094953;28;20224;-47
2024/01/27 06:48:26;;;;;;;10.10;3.20;;;-0.60;99.90;;;;;;5095167;28;20247;-48
2024/01/27 06:50:51;;;;;;;7.23;2.47;;;-0.60;99.90;;;;;;5094899;28;20176;-48
2024/01/27 06:53:19;;;;;;;7.50;2.63;;;-0.60;99.90;;;;;;5095091;28;20232;-48
2024/01/27 06:55:45;;;;;;;8.10;2.90;;;-0.60;99.90;;;;;;5094844;28;20225;-47
2024/01/27 06:58:10;;;;;;;11.17;2.90;;;-0.60;99.90;;;;;;5094624;28;20171;-48
2024/01/27 07:00:36;;;;;;;5.03;2.40;;;-0.60;99.90;;;;;;5094634;28;20235;-48
2024/01/27 07:03:02;;;;;;;14.27;3.70;;;-0.60;99.90;;;;;;5093639;28;20189;-49
2024/01/27 07:05:28;;;;;;;15.73;3.27;;;-0.70;99.90;;;;;;5094485;28;20176;-47
2024/01/27 07:07:53;;;;;;;5.97;2.97;;;-0.60;99.90;;;;;;5094515;28;20429;-47
2024/01/27 07:10:19;;;;;;;14.17;3.13;;;-0.70;99.90;;;;;;5094523;28;20238;-47
2024/01/27 07:12:45;;;;;;;9.17;3.20;;;-0.70;99.90;;;;;;5094723;28;20189;-47
2024/01/27 07:15:11;;;;;;;9.83;3.13;;;-0.70;99.90;;;;;;5092717;28;20213;-47
2024/01/27 07:17:36;;;;;;;9.53;2.60;;;-0.70;99.90;;;;;;5094221;28;20429;-46
2024/01/27 07:20:02;;;;;;;13.63;3.20;;;-0.70;99.90;;;;;;5094529;28;20259;-48
2024/01/27 07:22:30;;;;;;;14.77;3.17;;;-0.70;99.90;;;;;;5094637;28;20527;-48
2024/01/27 07:24:56;;;;;;;8.00;2.70;;;-0.80;99.90;;;;;;5094132;28;20181;-48
2024/01/27 07:27:25;;;;;;;11.30;3.10;;;-0.80;99.90;;;;;;5094134;28;20944;-46
2024/01/27 07:29:51;;;;;;;5.07;2.70;;;-0.80;99.90;;;;;;5094013;28;20432;-48
2024/01/27 07:32:19;;;;;;;11.33;2.57;;;-0.80;99.90;;;;;;5092836;28;20449;-47
2024/01/27 07:34:45;;;;;;;7.03;2.57;;;-0.80;99.90;;;;;;5093899;28;20242;-48
2024/01/27 07:37:11;;;;;;;9.93;2.80;;;-0.80;99.90;;;;;;5094181;28;20439;-48
2024/01/27 07:39:36;;;;;;;10.20;3.10;;;-0.80;99.90;;;;;;5093982;28;20228;-48
2024/01/27 07:42:05;;;;;;;13.10;2.93;;;-0.80;99.90;;;;;;5093833;28;20177;-48
2024/01/27 07:44:34;;;;;;;10.40;3.17;;;-0.80;99.90;;;;;;5092610;28;20194;-47
2024/01/27 07:47:02;;;;;;;13.83;3.40;;;-0.70;99.90;;;;;;5093802;28;20971;-48
2024/01/27 07:49:28;;;;;;;13.83;4.47;;;-0.80;99.90;;;;;;5093713;28;20473;-48
2024/01/27 07:51:55;;;;;;;16.13;3.33;;;-0.70;99.90;;;;;;5094314;28;20419;-47
2024/01/27 07:54:20;;;;;;;7.13;2.90;;;-0.70;99.90;;;;;;5094006;28;20185;-49
2024/01/27 07:56:46;;;;;;;11.10;3.00;;;-0.70;99.90;;;;;;5093523;28;20295;-48
2024/01/27 07:59:14;;;;;;;11.60;3.33;;;-0.70;99.90;;;;;;5094009;28;20167;-48
2024/01/27 08:01:43;;;;;;;13.67;3.10;;;-0.70;99.90;;;;;;5093743;28;20194;-48
2024/01/27 08:04:09;;;;;;;11.57;3.53;;;-0.70;99.90;;;;;;5092451;28;20421;-42
2024/01/27 08:06:45;;;;;;;11.93;3.37;;;-0.60;99.90;;;;;;5093529;28;20434;-41
2024/01/27 08:09:10;;;;;;;14.03;3.00;;;-0.60;99.90;;;;;;5094102;28;20164;-42
2024/01/27 08:11:37;;;;;;;16.57;3.00;;;-0.50;99.90;;;;;;5093487;28;20410;-43
2024/01/27 08:14:02;;;;;;;13.40;3.23;;;-0.50;99.90;;;;;;5093444;28;20648;-43
2024/01/27 08:16:28;;;;;;;13.13;5.10;;;-0.40;99.90;;;;;;5092953;28;20482;-42
2024/01/27 08:18:54;;;;;;;9.57;3.00;;;-0.40;99.90;;;;;;5093983;28;20188;-41
2024/01/27 08:21:19;;;;;;;10.20;3.07;;;-0.40;99.90;;;;;;5092176;28;20187;-43
2024/01/27 08:23:48;;;;;;;13.90;3.63;;;-0.30;99.90;;;;;;5092197;28;20184;-41
2024/01/27 08:26:14;;;;;;;11.90;3.60;;;-0.30;99.90;;;;;;5093437;28;20215;-43
2024/01/27 08:28:39;;;;;;;9.67;3.30;;;-0.20;99.90;;;;;;5093482;28;20419;-41
2024/01/27 08:31:05;;;;;;;11.57;3.67;;;-0.20;99.90;;;;;;5096059;28;20205;-42
2024/01/27 08:33:31;;;;;;;11.13;3.80;;;-0.10;99.90;;;;;;5096358;28;20195;-42
2024/01/27 08:35:56;;;;;;;13.37;3.20;;;-0.10;99.90;;;;;;5097634;28;20224;-42
2024/01/27 08:38:22;;;;;;;14.10;3.93;;;-0.10;99.90;;;;;;5097699;28;20645;-40
2024/01/27 08:40:49;;;;;;;18.07;3.53;;;0.00;99.90;;;;;;5097783;28;20187;-40
2024/01/27 08:43:16;;;;;;;17.80;3.67;;;0.10;99.90;;;;;;5097410;28;20182;-41
2024/01/27 08:45:41;;;;;;;12.13;3.03;;;0.20;99.90;;;;;;5097760;28;20520;-42
2024/01/27 08:48:07;;;;;;;13.80;3.73;;;0.30;99.90;;;;;;5097198;28;20512;-43
2024/01/27 08:50:33;;;;;;;15.30;3.97;;;0.40;99.90;;;;;;5097225;28;20171;-43
2024/01/27 08:53:02;;;;;;;13.60;3.17;;;0.50;99.90;;;;;;5097100;28;20641;-42
2024/01/27 08:55:28;;;;;;;16.80;3.53;;;0.70;99.90;;;;;;5095653;28;20304;-43
2024/01/27 08:57:53;;;;;;;13.63;3.57;;;0.70;99.90;;;;;;5097042;28;20563;-42
2024/01/27 09:00:19;;;;;;;15.87;3.57;;;0.80;99.90;;;;;;5097224;28;20180;-41
2024/01/27 09:02:45;;;;;;;13.80;4.03;;;0.90;99.90;;;;;;5096855;28;20192;-40
2024/01/27 09:05:11;;;;;;;20.37;3.57;;;1.00;99.90;;;;;;5095743;28;20657;-41
2024/01/27 09:07:40;;;;;;;14.07;3.87;;;1.10;99.90;;;;;;5096081;28;20203;-42
2024/01/27 09:10:06;;;;;;;9.40;3.07;;;1.10;99.90;;;;;;5096747;28;20683;-41
2024/01/27 09:12:32;;;;;;;18.27;4.17;;;1.20;99.90;;;;;;5096768;28;20780;-41
2024/01/27 09:14:58;;;;;;;16.50;4.40;;;1.30;99.90;;;;;;5096936;28;20202;-43
2024/01/27 09:17:24;;;;;;;18.03;4.27;;;1.40;99.90;;;;;;5096665;28;20200;-43
2024/01/27 09:19:50;;;;;;;19.33;4.47;;;1.50;99.90;;;;;;5096638;28;20205;-40
2024/01/27 09:22:19;;;;;;;22.70;4.97;;;1.60;99.90;;;;;;5096707;28;20176;-40
2024/01/27 09:24:45;;;;;;;22.10;4.70;;;1.70;99.90;;;;;;5096535;28;20410;-43
2024/01/27 09:27:11;;;;;;;16.37;4.03;;;1.80;99.90;;;;;;5096743;28;20198;-41
2024/01/27 09:29:36;;;;;;;14.63;3.70;;;1.90;99.90;;;;;;5096621;28;20231;-43
2024/01/27 09:32:02;;;;;;;16.53;4.83;;;2.00;99.90;;;;;;5096381;28;20316;-42
2024/01/27 09:34:28;;;;;;;11.67;3.50;;;2.10;99.90;;;;;;5095196;28;20678;-44
2024/01/27 09:36:54;;;;;;;12.43;3.43;;;2.20;99.90;;;;;;5096140;28;20320;-41
2024/01/27 09:39:22;;;;;;;13.63;3.60;;;2.40;99.90;;;;;;5096233;28;20179;-43
2024/01/27 09:41:49;;;;;;;14.43;3.50;;;2.40;99.90;;;;;;5094879;28;20561;-42
2024/01/27 09:44:18;;;;;;;13.03;3.43;;;2.50;99.90;;;;;;5096373;28;20666;-43
2024/01/27 09:46:47;;;;;;;15.10;3.77;;;2.60;99.90;;;;;;5096094;28;20199;-43
2024/01/27 09:49:16;;;;;;;13.60;4.27;;;2.80;99.90;;;;;;5095130;28;20187;-41
2024/01/27 09:51:42;;;;;;;13.00;3.67;;;2.90;99.90;;;;;;5094804;28;20639;-42
2024/01/27 09:54:07;;;;;;;13.20;3.30;;;3.00;99.90;;;;;;5094944;28;20233;-41
2024/01/27 09:56:34;;;;;;;9.70;3.70;;;3.20;99.90;;;;;;5095677;28;20214;-43
2024/01/27 09:59:00;;;;;;;11.63;3.00;;;3.30;99.90;;;;;;5095931;28;20171;-43
2024/01/27 10:01:28;;;;;;;14.30;3.20;;;3.40;99.90;;;;;;5095981;28;20202;-43
2024/01/27 10:03:58;;;;;;;17.43;3.87;;;3.60;99.90;;;;;;5096127;28;20615;-42
2024/01/27 10:06:26;;;;;;;12.93;3.53;;;3.70;99.90;;;;;;5095652;28;20734;-43
2024/01/27 10:08:54;;;;;;;7.03;2.80;;;3.80;99.90;;;;;;5095768;28;20171;-43
2024/01/27 10:11:23;;;;;;;11.90;3.50;;;3.90;99.90;;;;;;5094419;28;20205;-42
2024/01/27 10:13:59;;;;;;;11.47;4.23;;;4.00;99.90;;;;;;5095780;28;20724;-41
2024/01/27 10:16:28;;;;;;;14.50;4.10;;;4.20;99.90;;;;;;5095657;28;20237;-45
2024/01/27 10:19:03;;;;;;;13.33;3.43;;;4.30;99.90;;;;;;5095685;28;20548;-41
2024/01/27 10:21:31;;;;;;;15.43;3.93;;;4.40;99.90;;;;;;5094230;28;20189;-44
2024/01/27 10:23:56;;;;;;;10.93;3.53;;;4.50;99.90;;;;;;5095533;28;20199;-42
2024/01/27 10:26:22;;;;;;;11.53;3.70;;;4.60;99.90;;;;;;5094489;28;20246;-42
2024/01/27 10:28:57;;;;;;;17.70;3.63;;;4.70;99.90;;;;;;5095395;28;20183;-41
2024/01/27 10:31:34;;;;;;;15.13;3.60;;;4.80;99.90;;;;;;5095128;28;20183;-41
2024/01/27 10:34:09;;;;;;;17.30;4.23;;;4.90;99.90;;;;;;5094029;28;20636;-42
2024/01/27 10:36:44;;;;;;;17.43;3.57;;;5.00;99.90;;;;;;5095057;28;20730;-41
2024/01/27 10:39:23;;;;;;;12.50;2.73;;;5.00;99.90;;;;;;5095383;28;20181;-42
2024/01/27 10:41:51;;;;;;;11.80;3.50;;;5.20;99.90;;;;;;5095048;28;20642;-44
2024/01/27 10:44:21;;;;;;;12.50;3.30;;;5.20;99.90;;;;;;5095154;28;20248;-42
2024/01/27 10:46:49;;;;;;;16.20;3.50;;;5.40;99.90;;;;;;5095451;28;20197;-41
2024/01/27 10:49:17;;;;;;;10.70;2.67;;;5.40;99.90;;;;;;5095465;28;20170;-41
2024/01/27 10:51:58;;;;;;;12.43;2.87;;;5.50;99.90;;;;;;5094278;28;20186;-40
2024/01/27 10:54:42;;;;;;;13.47;3.23;;;5.60;99.90;;;;;;5094608;28;20186;-44
2024/01/27 10:57:09;;;;;;;11.60;2.90;;;5.70;99.90;;;;;;5095126;28;20202;-41
2024/01/27 10:59:36;;;;;;;16.07;3.30;;;5.80;99.90;;;;;;5094646;28;20646;-42
2024/01/27 11:02:12;;;;;;;9.77;2.70;;;5.90;99.90;;;;;;5094704;28;20227;-40
2024/01/27 11:04:39;;;;;;;9.90;2.60;;;5.90;99.90;;;;;;5095145;28;20664;-42
2024/01/27 11:07:06;;;;;;;12.50;3.10;;;6.00;99.90;;;;;;5093496;28;20696;-43
2024/01/27 11:09:34;;;;;;;9.63;2.97;;;6.10;99.90;;;;;;5094821;28;20277;-44
2024/01/27 11:12:02;;;;;;;12.70;2.60;;;6.20;99.90;;;;;;5093297;28;20707;-44
2024/01/27 11:14:28;;;;;;;12.50;3.17;;;6.30;99.90;;;;;;5094292;28;20179;-41
2024/01/27 11:16:57;;;;;;;11.00;2.60;;;6.30;99.90;;;;;;5093609;28;20221;-43
2024/01/27 11:19:24;;;;;;;11.80;2.57;;;6.40;99.90;;;;;;5094556;28;20175;-45
2024/01/27 11:22:03;;;;;;;11.30;3.10;;;6.50;99.90;;;;;;5093395;28;20253;-40
2024/01/27 11:24:29;;;;;;;13.00;2.60;;;6.60;99.90;;;;;;5094541;28;20547;-43
2024/01/27 11:27:13;;;;;;;10.03;2.47;;;6.60;99.90;;;;;;5094327;28;20202;-44
2024/01/27 11:29:48;;;;;;;12.03;2.30;;;6.70;99.90;;;;;;5094420;28;20207;-41
2024/01/27 11:32:15;;;;;;;9.40;2.23;;;6.80;99.90;;;;;;5094130;28;20234;-43
2024/01/27 11:34:44;;;;;;;7.33;1.70;;;6.80;99.90;;;;;;5094127;28;20283;-43
2024/01/27 11:37:19;;;;;;;9.67;2.60;;;6.90;99.90;;;;;;5093955;28;20271;-42
2024/01/27 11:39:45;;;;;;;11.33;2.47;;;7.00;99.90;;;;;;5093172;28;20159;-43
2024/01/27 11:42:15;;;;;;;9.93;2.70;;;7.10;99.90;;;;;;5094188;28;20499;-44
2024/01/27 11:44:42;;;;;;;12.70;2.30;;;7.20;99.90;;;;;;5094215;28;20531;-42
2024/01/27 11:47:16;;;;;;;8.73;1.70;;;7.20;99.90;;;;;;5094071;28;20233;-44
2024/01/27 11:49:43;;;;;;;3.67;1.73;;;7.30;99.90;;;;;;5093823;28;20180;-44
2024/01/27 11:52:11;;;;;;;7.60;1.97;;;7.40;99.90;;;;;;5094038;28;20525;-43
2024/01/27 11:54:38;;;;;;;13.00;2.27;;;7.40;99.90;;;;;;5093768;28;20169;-41
2024/01/27 11:57:04;;;;;;;8.30;1.97;;;7.50;99.90;;;;;;5093846;28;20294;-41
2024/01/27 11:59:30;;;;;;;7.30;2.23;;;7.50;99.90;;;;;;5093642;28;20251;-40
2024/01/27 12:02:00;;;;;;;9.07;1.93;;;7.60;99.90;;;;;;5092471;28;20597;-45
2024/01/27 12:04:26;;;;;;;8.57;1.77;;;7.70;99.90;;;;;;5093111;28;20219;-44
2024/01/27 12:06:52;;;;;;;11.73;2.60;;;7.70;99.90;;;;;;5092228;28;20222;-41
2024/01/27 12:09:18;;;;;;;12.63;2.50;;;7.80;99.90;;;;;;5093560;28;20675;-44
2024/01/27 12:11:43;;;;;;;10.87;2.47;;;7.80;99.90;;;;;;5093480;28;20182;-43
2024/01/27 12:14:09;;;;;;;8.10;1.80;;;7.90;99.90;;;;;;5092469;28;20259;-41
2024/01/27 12:16:35;;;;;;;5.33;2.03;;;7.90;99.90;;;;;;5092146;28;20686;-42
2024/01/27 12:19:01;;;;;;;11.97;2.33;;;8.00;99.90;;;;;;5093388;28;20269;-41
2024/01/27 12:21:35;;;;;;;13.00;2.57;;;8.10;99.90;;;;;;5091900;28;20179;-43
2024/01/27 12:24:01;;;;;;;9.27;2.00;;;8.10;99.90;;;;;;5093366;28;20249;-42
2024/01/27 12:26:29;;;;;;;13.00;2.40;;;8.20;99.90;;;;;;5093510;28;20278;-41
2024/01/27 12:28:55;;;;;;;10.43;2.47;;;8.20;99.90;;;;;;5093319;28;20542;-42
2024/01/27 12:31:23;;;;;;;6.67;1.70;;;8.30;99.90;;;;;;5092025;28;20214;-44
2024/01/27 12:33:55;;;;;;;7.67;1.80;;;8.30;99.90;;;;;;5092085;28;20256;-43
2024/01/27 12:36:21;;;;;;;12.57;2.80;;;8.40;99.90;;;;;;5093415;28;20249;-42
2024/01/27 12:39:05;;;;;;;9.53;2.00;;;8.50;99.90;;;;;;5093252;28;20492;-42
2024/01/27 12:41:33;;;;;;;9.13;2.00;;;8.50;99.90;;;;;;5094120;28;20556;-42
2024/01/27 12:43:59;;;;;;;13.30;2.97;;;8.60;99.90;;;;;;5092071;28;20187;-44
2024/01/27 12:46:26;;;;;;;6.50;1.80;;;8.70;99.90;;;;;;5093468;28;20723;-42
2024/01/27 12:48:52;;;;;;;9.10;2.30;;;8.70;99.90;;;;;;5093194;28;20206;-44